AirportContent of METAR report
LYBEMETAR LYBE 051900Z 14007KT CAVOK 12/M00 Q1026 NOSIG=
LYBTMETAR LYBT 051900Z 12004KT CAVOK 11/M00 Q1026 NOSIG=
LYKVMETAR LYKV 051900Z 00000KT CAVOK 08/M01 Q1026 NOSIG=
LYNIMETAR LYNI 051900Z 36007KT 340V150 CAVOK 11/M02 Q1025 NOSIG=
LYVRMETAR LYVR 051900Z AUTO 15016KT CAVOK 14/M02 Q1026=
LYUZMETAR LYUZ 051900Z AUTO VRB01KT CAVOK 03/M04 Q1025=
LYPGMETAR LYPG 051900Z 05012KT 010V070 9999 SCT080 16/M03 Q1020 NOSIG=
LYTVMETAR LYTV 051900Z 03011G32KT CAVOK 17/M04 Q1017=

Data loaded: 2020-04-05 19:14:50 UTC

METAR, TAF, AIRMET, GAMET, SIGMET

Important note: MET information on these web pages are informative and restricted to aeronautical users, must not be used for any commercial purpose, and do not replace flight documentation.